Time;durP1;ratioP1;P1;durP2;ratioP2;P2;SDS_P1;SDS_P2;PMS_P1;PMS_P2;Temp;Humidity;BMP_temperature;BMP_pressure;BME280_temperature;BME280_humidity;BME280_pressure;Samples;Min_cycle;Max_cycle;Signal;HPM_P1;HPM_P2
2022/11/09 00:08:22;;;;;;;2.38;0.50;;;12.30;99.90;;;;;;6181992;23;20075;-87
2022/11/09 00:10:48;;;;;;;3.30;1.47;;;12.30;99.90;;;;;;6106457;23;20025;-86
2022/11/09 00:13:13;;;;;;;1.03;0.50;;;12.40;99.90;;;;;;6106784;23;20253;-89
2022/11/09 00:15:39;;;;;;;2.37;0.57;;;12.40;99.90;;;;;;6106660;23;20063;-87
2022/11/09 00:18:05;;;;;;;2.60;0.80;;;12.30;99.90;;;;;;6106661;23;20251;-87
2022/11/09 00:20:30;;;;;;;1.40;0.67;;;12.40;99.90;;;;;;6181922;23;20056;-86
2022/11/09 00:23:02;;;;;;;2.80;0.70;;;12.40;99.90;;;;;;6132234;23;20259;-87
2022/11/09 00:25:28;;;;;;;2.75;0.80;;;12.40;99.90;;;;;;6131196;23;20446;-87
2022/11/09 00:27:53;;;;;;;1.60;0.60;;;12.40;99.90;;;;;;6234739;23;20020;-86
2022/11/09 00:30:19;;;;;;;1.57;0.70;;;12.40;99.90;;;;;;6155848;23;20021;-87
2022/11/09 00:32:45;;;;;;;1.87;0.70;;;12.40;99.90;;;;;;6155918;23;20450;-86
2022/11/09 00:35:10;;;;;;;1.53;0.70;;;12.40;99.90;;;;;;6155596;23;20323;-87
2022/11/09 00:37:36;;;;;;;2.57;0.90;;;12.40;99.90;;;;;;6131377;23;20017;-87
2022/11/09 00:40:02;;;;;;;3.53;0.90;;;12.40;99.90;;;;;;6131203;23;20461;-88
2022/11/09 00:42:28;;;;;;;5.20;0.63;;;12.40;99.90;;;;;;6155798;23;20024;-87
2022/11/09 00:44:53;;;;;;;3.50;0.63;;;12.40;99.90;;;;;;6181926;23;20021;-86
2022/11/09 00:47:19;;;;;;;2.43;0.60;;;12.40;99.90;;;;;;6181843;23;20025;-87
2022/11/09 00:49:45;;;;;;;2.10;0.90;;;12.40;99.90;;;;;;6155670;23;20093;-87
2022/11/09 00:52:11;;;;;;;2.03;0.77;;;12.40;99.90;;;;;;6182038;23;20100;-87
2022/11/09 00:54:36;;;;;;;1.75;0.70;;;12.40;99.90;;;;;;6155855;23;20506;-87
2022/11/09 00:57:02;;;;;;;3.70;1.00;;;12.40;99.90;;;;;;6181987;23;20053;-86
2022/11/09 00:59:30;;;;;;;2.20;0.87;;;12.40;99.90;;;;;;6130952;23;20017;-87
2022/11/09 01:01:56;;;;;;;3.42;0.95;;;12.40;99.90;;;;;;6155759;23;20052;-87
2022/11/09 01:04:21;;;;;;;2.17;1.07;;;12.50;99.90;;;;;;6155547;23;20018;-87
2022/11/09 01:06:47;;;;;;;1.73;0.70;;;12.50;99.90;;;;;;6181642;23;20501;-87
2022/11/09 01:09:13;;;;;;;3.43;0.90;;;12.50;99.90;;;;;;6130762;23;20342;-86
2022/11/09 01:11:39;;;;;;;4.00;1.27;;;12.50;99.90;;;;;;6130549;23;20032;-88
2022/11/09 01:14:04;;;;;;;4.80;1.10;;;12.50;99.90;;;;;;6182042;23;20013;-87
2022/11/09 01:16:30;;;;;;;2.03;0.93;;;12.50;99.90;;;;;;6155612;23;20017;-87
2022/11/09 01:18:57;;;;;;;3.40;1.10;;;12.50;99.90;;;;;;6155783;23;20067;-86
2022/11/09 01:21:23;;;;;;;2.42;1.00;;;12.50;99.90;;;;;;6181675;23;20478;-86
2022/11/09 01:23:49;;;;;;;3.30;1.13;;;12.50;99.90;;;;;;6155404;23;20027;-87
2022/11/09 01:26:15;;;;;;;1.27;0.70;;;12.50;99.90;;;;;;6182068;23;20013;-87
2022/11/09 01:28:41;;;;;;;1.45;0.68;;;12.50;99.90;;;;;;6182073;22;20280;-87
2022/11/09 01:31:18;;;;;;;1.92;0.70;;;12.50;99.90;;;;;;6155465;23;20017;-87
2022/11/09 01:33:44;;;;;;;1.98;0.88;;;12.50;99.90;;;;;;6155636;23;20020;-86
2022/11/09 01:36:15;;;;;;;3.13;0.80;;;12.40;99.90;;;;;;6130890;23;20013;-86
2022/11/09 01:38:42;;;;;;;1.20;0.63;;;12.40;99.90;;;;;;6155315;23;20438;-86
2022/11/09 01:41:15;;;;;;;1.95;0.80;;;12.40;99.90;;;;;;6181533;23;20092;-87
2022/11/09 01:43:41;;;;;;;2.63;0.80;;;12.40;99.90;;;;;;6155217;23;20438;-87
2022/11/09 01:46:24;;;;;;;1.77;0.80;;;12.40;99.90;;;;;;6155369;23;20021;-87
2022/11/09 01:49:02;;;;;;;1.80;0.65;;;12.40;99.90;;;;;;6154949;23;20059;-87
2022/11/09 01:51:38;;;;;;;2.30;1.05;;;12.40;99.90;;;;;;6155267;23;20017;-86
2022/11/09 01:54:21;;;;;;;3.20;0.70;;;12.50;99.90;;;;;;6181826;23;20092;-87
2022/11/09 01:56:52;;;;;;;3.53;1.00;;;12.50;99.90;;;;;;6130578;23;20020;-86
2022/11/09 01:59:23;;;;;;;3.03;1.10;;;12.50;99.90;;;;;;6155210;23;20028;-87
2022/11/09 02:01:51;;;;;;;2.80;0.80;;;12.50;99.90;;;;;;6181303;23;20021;-86
2022/11/09 02:04:25;;;;;;;1.95;0.70;;;12.60;99.90;;;;;;6156044;22;20434;-86
2022/11/09 02:06:53;;;;;;;1.40;0.60;;;12.60;99.90;;;;;;6181470;23;20013;-86
2022/11/09 02:09:50;;;;;;;1.95;0.70;;;12.60;99.90;;;;;;6130273;23;20021;-86
2022/11/09 04:16:17;;;;;;;2.53;0.45;;;12.30;99.90;;;;;;6242525;22;20027;-94
2022/11/09 04:18:43;;;;;;;3.22;0.55;;;12.30;99.90;;;;;;6265630;22;20027;-92
2022/11/09 04:21:08;;;;;;;2.20;0.80;;;12.30;99.90;;;;;;6264111;22;20045;-92
2022/11/09 04:23:34;;;;;;;3.93;0.73;;;12.30;99.90;;;;;;6291472;22;20245;-90
2022/11/09 04:26:00;;;;;;;1.83;0.57;;;12.30;99.90;;;;;;6276912;22;19998;-94
2022/11/09 04:28:26;;;;;;;3.80;0.87;;;12.30;99.90;;;;;;6315117;22;20225;-92
2022/11/09 04:30:51;;;;;;;1.83;0.50;;;12.30;99.90;;;;;;6293327;22;20038;-95
2022/11/09 04:33:18;;;;;;;3.53;0.70;;;12.30;99.90;;;;;;6238223;22;20395;-92
2022/11/09 04:35:43;;;;;;;2.20;0.60;;;12.30;99.90;;;;;;6263404;22;20054;-93
2022/11/09 04:38:12;;;;;;;3.23;0.77;;;12.30;99.90;;;;;;6288412;22;20010;-93
2022/11/09 04:40:38;;;;;;;2.38;0.50;;;12.20;99.90;;;;;;6288880;22;20301;-91
2022/11/09 04:43:23;;;;;;;3.47;0.45;;;12.20;99.90;;;;;;6288962;22;20011;-93
2022/11/09 04:45:52;;;;;;;3.03;1.00;;;12.20;99.90;;;;;;6262924;22;20106;-91
2022/11/09 04:48:18;;;;;;;1.85;0.50;;;12.20;99.90;;;;;;6289188;22;20019;-92
2022/11/09 04:50:43;;;;;;;3.33;0.70;;;12.20;99.90;;;;;;6288351;22;20022;-90
2022/11/09 04:53:16;;;;;;;3.07;0.67;;;12.20;99.90;;;;;;6262589;22;20007;-92
2022/11/09 04:55:42;;;;;;;2.63;0.60;;;12.20;99.90;;;;;;6287796;22;20023;-91
2022/11/09 04:58:09;;;;;;;2.88;0.68;;;12.20;99.90;;;;;;6289165;22;20014;-95
2022/11/09 05:00:35;;;;;;;1.08;0.43;;;12.20;99.90;;;;;;6289385;22;20348;-91
2022/11/09 05:03:02;;;;;;;4.37;0.70;;;12.20;99.90;;;;;;6263430;22;20022;-93
2022/11/09 05:05:28;;;;;;;3.92;0.65;;;12.20;99.90;;;;;;6288865;22;20249;-91
2022/11/09 05:07:55;;;;;;;2.28;0.60;;;12.20;99.90;;;;;;6288080;22;20339;-91
2022/11/09 05:54:42;;;;;;;1.60;0.60;;;12.20;99.90;;;;;;6258274;22;20006;-91
2022/11/09 05:57:07;;;;;;;1.83;0.63;;;12.20;99.90;;;;;;6264374;22;20440;-90
2022/11/09 07:05:10;;;;;;;2.72;0.70;;;12.00;99.90;;;;;;6203672;22;20029;-89
2022/11/09 07:07:38;;;;;;;1.80;0.50;;;12.00;99.90;;;;;;6139431;23;20024;-94
2022/11/09 07:10:05;;;;;;;3.35;0.60;;;12.00;99.90;;;;;;6146789;23;20320;-96
2022/11/09 07:12:32;;;;;;;1.70;0.50;;;12.00;99.90;;;;;;6170249;23;20099;-91
2022/11/09 07:14:57;;;;;;;3.08;0.70;;;12.00;99.90;;;;;;6145324;23;20017;-95
2022/11/09 07:17:23;;;;;;;4.93;0.60;;;12.00;99.90;;;;;;6169422;23;20100;-92
2022/11/09 07:19:49;;;;;;;2.40;0.90;;;12.00;99.90;;;;;;6142238;23;20035;-92
2022/11/09 07:22:19;;;;;;;1.97;0.83;;;12.00;99.90;;;;;;6169738;22;20021;-93
2022/11/09 07:24:45;;;;;;;1.65;0.30;;;12.00;99.90;;;;;;6141947;23;20017;-91
2022/11/09 07:27:11;;;;;;;5.37;0.97;;;12.00;99.90;;;;;;6167491;23;20021;-95
2022/11/09 07:29:36;;;;;;;6.47;0.67;;;12.00;99.90;;;;;;6165235;23;20440;-93
2022/11/09 07:32:02;;;;;;;4.57;0.80;;;12.00;99.90;;;;;;6139708;23;20024;-91
2022/11/09 07:34:50;;;;;;;1.33;0.40;;;12.00;99.90;;;;;;6141155;23;20062;-92
2022/11/09 07:37:16;;;;;;;;;;;12.00;99.90;;;;;;6163101;22;20024;-93
2022/11/09 07:39:43;;;;;;;1.77;0.40;;;12.10;99.90;;;;;;6161957;23;20339;-94
2022/11/09 07:42:24;;;;;;;1.85;0.52;;;12.10;99.90;;;;;;6164144;23;20021;-92
2022/11/09 07:44:50;;;;;;;3.05;0.60;;;12.10;99.90;;;;;;6161401;23;20017;-91
2022/11/09 07:47:17;;;;;;;3.17;0.40;;;12.10;99.90;;;;;;6161855;23;20020;-92
2022/11/09 07:49:43;;;;;;;1.83;0.40;;;12.00;99.90;;;;;;6162092;23;20336;-91
2022/11/09 07:52:09;;;;;;;4.60;0.68;;;12.10;99.90;;;;;;6162405;23;20251;-89
2022/11/09 07:54:35;;;;;;;1.07;0.30;;;12.10;99.90;;;;;;6163914;23;20025;-95
2022/11/09 07:57:01;;;;;;;3.37;0.40;;;12.10;99.90;;;;;;6162475;23;20270;-92
2022/11/09 07:59:27;;;;;;;3.40;0.70;;;12.10;99.90;;;;;;6161249;23;20252;-92
2022/11/09 08:01:53;;;;;;;4.40;0.80;;;12.20;99.90;;;;;;6135798;23;20027;-91
2022/11/09 08:04:18;;;;;;;2.43;0.60;;;12.20;99.90;;;;;;6137234;23;20074;-96
2022/11/09 08:06:44;;;;;;;2.70;0.57;;;12.20;99.90;;;;;;6107746;23;20455;-94
2022/11/09 08:09:10;;;;;;;3.00;0.77;;;12.20;99.90;;;;;;6107964;23;20017;-96
2022/11/09 08:11:36;;;;;;;2.03;0.30;;;12.20;99.90;;;;;;6131645;23;20021;-91
2022/11/09 08:14:01;;;;;;;2.20;0.50;;;12.20;99.90;;;;;;6131175;23;20013;-92
2022/11/09 08:16:30;;;;;;;2.23;0.37;;;12.20;99.90;;;;;;6132157;23;20309;-95
2022/11/09 08:18:56;;;;;;;1.80;0.63;;;12.20;99.90;;;;;;6133837;23;20092;-92
2022/11/09 08:21:21;;;;;;;2.13;0.55;;;12.30;99.90;;;;;;6132843;23;20068;-94
2022/11/09 08:23:47;;;;;;;2.37;0.63;;;12.30;99.90;;;;;;6236956;22;20020;-90
2022/11/09 08:26:41;;;;;;;3.30;0.50;;;12.30;99.90;;;;;;6135067;23;20017;-93
2022/11/09 08:29:06;;;;;;;2.25;0.40;;;12.30;99.90;;;;;;6163276;22;20032;-93
2022/11/09 08:36:43;;;;;;;2.45;0.60;;;12.40;99.90;;;;;;6200804;22;20029;-90
2022/11/09 08:39:09;;;;;;;2.03;0.43;;;12.40;99.90;;;;;;6265865;22;20093;-91
2022/11/09 09:04:52;;;;;;;4.18;0.82;;;12.60;99.90;;;;;;6319124;22;20049;-96
2022/11/09 09:07:18;;;;;;;2.90;0.82;;;12.60;99.90;;;;;;6162881;23;20124;-95
2022/11/09 09:09:46;;;;;;;4.07;0.93;;;12.60;99.90;;;;;;6165830;22;20442;-91
2022/11/09 09:12:12;;;;;;;2.95;0.63;;;12.70;99.90;;;;;;6164816;22;20020;-96
2022/11/09 09:14:37;;;;;;;2.75;0.60;;;12.70;99.90;;;;;;6163424;23;20096;-92
2022/11/09 09:17:17;;;;;;;4.50;0.68;;;12.70;99.90;;;;;;6163562;23;20016;-96
2022/11/09 09:19:43;;;;;;;2.25;0.60;;;12.80;99.90;;;;;;6165468;23;20056;-92
2022/11/09 09:51:50;;;;;;;4.68;1.08;;;13.10;99.90;;;;;;6211820;23;20457;-96
2022/11/09 09:54:30;;;;;;;2.15;0.57;;;13.20;99.90;;;;;;6161796;23;20025;-91
2022/11/09 09:56:59;;;;;;;2.88;0.50;;;13.20;99.90;;;;;;6162111;23;20012;-92
2022/11/09 09:59:42;;;;;;;1.33;0.45;;;13.30;99.90;;;;;;6161770;23;20069;-92
2022/11/09 10:02:27;;;;;;;3.55;0.80;;;13.30;99.90;;;;;;6161540;23;20017;-91
2022/11/09 10:05:05;;;;;;;3.20;0.80;;;13.30;99.90;;;;;;6162486;23;20016;-93
2022/11/09 10:08:01;;;;;;;4.38;0.80;;;13.40;99.90;;;;;;6161669;23;20020;-94
2022/11/09 10:11:00;;;;;;;5.97;1.15;;;13.40;99.90;;;;;;6161908;23;20104;-89
2022/11/09 10:13:53;;;;;;;2.15;0.52;;;13.40;99.90;;;;;;6163094;23;20086;-93
2022/11/09 10:16:28;;;;;;;4.05;0.77;;;13.50;99.90;;;;;;6162309;23;20028;-96
2022/11/09 10:19:37;;;;;;;2.90;0.80;;;13.50;99.90;;;;;;6173159;23;20054;-92
2022/11/09 10:22:28;;;;;;;3.17;0.98;;;13.50;99.90;;;;;;6198047;23;20023;-91
2022/11/09 10:25:18;;;;;;;4.00;0.70;;;13.60;99.90;;;;;;6174226;23;20068;-93
2022/11/09 10:27:55;;;;;;;2.78;0.80;;;13.60;99.90;;;;;;6168949;23;20027;-91
2022/11/09 10:30:27;;;;;;;4.57;0.88;;;13.60;99.90;;;;;;6164536;23;20095;-96
2022/11/09 10:33:08;;;;;;;4.05;0.93;;;13.60;99.90;;;;;;6182331;22;20030;-94
2022/11/09 10:35:46;;;;;;;3.03;0.80;;;13.60;99.90;;;;;;6187946;22;20017;-92
2022/11/09 10:38:19;;;;;;;2.08;0.90;;;13.70;99.90;;;;;;6162717;23;20150;-94
2022/11/09 10:40:52;;;;;;;4.22;0.80;;;13.70;99.90;;;;;;6162817;23;20056;-94
2022/11/09 10:43:19;;;;;;;4.55;1.17;;;13.70;99.90;;;;;;6166714;23;20077;-90
2022/11/09 10:46:04;;;;;;;3.80;1.00;;;13.80;99.90;;;;;;6189702;23;20023;-94
2022/11/09 10:48:38;;;;;;;4.03;1.05;;;13.80;99.90;;;;;;6165150;23;20012;-93
2022/11/09 10:51:25;;;;;;;3.95;1.10;;;13.80;99.90;;;;;;6167745;23;20013;-96
2022/11/09 10:54:32;;;;;;;2.33;0.90;;;13.80;99.90;;;;;;6164756;23;20023;-91
2022/11/09 10:57:22;;;;;;;2.72;1.15;;;13.70;99.90;;;;;;6165673;23;20013;-94
2022/11/09 10:59:49;;;;;;;2.63;0.90;;;13.70;99.90;;;;;;6163756;23;20048;-92
2022/11/09 11:02:24;;;;;;;4.43;1.10;;;13.70;99.90;;;;;;6164466;23;20020;-90
2022/11/09 11:05:16;;;;;;;4.00;1.00;;;13.70;99.90;;;;;;6165037;23;20017;-92
2022/11/09 11:07:45;;;;;;;3.42;1.00;;;13.70;99.90;;;;;;6176300;22;20517;-95
2022/11/09 11:10:21;;;;;;;3.72;1.02;;;13.60;99.90;;;;;;6164539;23;20068;-96
2022/11/09 11:15:37;;;;;;;5.07;1.23;;;13.60;99.90;;;;;;6212929;22;20017;-90
2022/11/09 11:18:22;;;;;;;5.65;1.00;;;13.60;99.90;;;;;;6163181;23;20059;-94
2022/11/09 11:21:22;;;;;;;3.20;1.17;;;13.60;99.90;;;;;;6166717;23;20021;-93
2022/11/09 11:24:11;;;;;;;4.10;1.13;;;13.60;99.90;;;;;;6191263;23;20070;-92
2022/11/09 11:26:39;;;;;;;3.92;1.02;;;13.70;99.90;;;;;;6186912;23;20017;-94
2022/11/09 11:29:34;;;;;;;4.07;1.15;;;13.60;99.90;;;;;;6163151;23;20075;-92
2022/11/09 11:31:59;;;;;;;4.72;0.88;;;13.60;99.90;;;;;;6171854;23;20017;-91
2022/11/09 11:34:25;;;;;;;2.78;1.17;;;13.60;99.90;;;;;;6167731;23;20023;-92
2022/11/09 11:37:13;;;;;;;2.13;0.80;;;13.60;99.90;;;;;;6142588;23;20024;-95
2022/11/09 11:39:57;;;;;;;1.85;0.80;;;13.50;99.90;;;;;;6156624;23;20005;-95
2022/11/09 11:42:53;;;;;;;7.50;1.15;;;13.60;99.90;;;;;;6108090;23;20021;-95
2022/11/09 11:45:58;;;;;;;2.90;0.90;;;13.60;99.90;;;;;;6107990;23;20017;-93
2022/11/09 11:48:54;;;;;;;4.82;1.00;;;13.60;99.90;;;;;;6010208;23;20028;-94
2022/11/09 11:51:45;;;;;;;4.63;0.98;;;13.60;99.90;;;;;;6112219;23;20051;-95
2022/11/09 11:54:31;;;;;;;2.70;0.85;;;13.60;99.90;;;;;;6107307;23;20021;-92
2022/11/09 11:57:05;;;;;;;5.50;1.30;;;13.60;99.90;;;;;;6131898;23;20014;-96
2022/11/09 12:00:08;;;;;;;3.88;0.90;;;13.60;99.90;;;;;;6108669;23;20069;-95
2022/11/09 12:03:00;;;;;;;3.63;1.33;;;13.60;99.90;;;;;;6133558;23;20079;-95
2022/11/09 12:05:58;;;;;;;3.38;1.00;;;13.70;99.90;;;;;;6106975;23;20047;-91
2022/11/09 12:19:45;;;;;;;3.38;1.10;;;13.70;99.90;;;;;;6218878;22;20021;-92
2022/11/09 12:22:26;;;;;;;2.95;1.05;;;13.70;99.90;;;;;;6167480;23;20020;-92
2022/11/09 12:28:06;;;;;;;5.28;1.15;;;13.70;99.90;;;;;;6220363;22;20025;-92
2022/11/09 12:30:57;;;;;;;3.63;1.20;;;13.60;99.90;;;;;;6220253;23;20024;-92
2022/11/09 12:33:53;;;;;;;5.35;1.15;;;13.60;99.90;;;;;;6193360;23;20013;-94
2022/11/09 12:36:24;;;;;;;6.90;2.38;;;13.60;99.90;;;;;;6203935;22;20008;-93
2022/11/09 12:39:00;;;;;;;4.78;1.13;;;13.60;99.90;;;;;;6215177;22;20036;-93
2022/11/09 12:41:34;;;;;;;6.05;1.17;;;13.60;99.90;;;;;;6198915;23;20059;-93
2022/11/09 12:44:32;;;;;;;3.55;1.20;;;13.60;99.90;;;;;;6191550;22;20017;-92
2022/11/09 12:47:07;;;;;;;3.45;1.42;;;13.60;99.90;;;;;;6189078;23;20064;-92
2022/11/09 12:49:35;;;;;;;6.00;1.40;;;13.60;99.90;;;;;;6193228;23;20001;-93
2022/11/09 12:52:06;;;;;;;3.33;1.25;;;13.60;99.90;;;;;;6194804;23;20044;-90
2022/11/09 12:54:37;;;;;;;4.40;1.17;;;13.70;99.90;;;;;;6194160;23;20015;-92
2022/11/09 12:57:08;;;;;;;3.97;1.33;;;13.60;99.90;;;;;;6194168;23;20150;-91
2022/11/09 12:59:52;;;;;;;3.85;1.20;;;13.70;99.90;;;;;;6192755;23;20023;-93
2022/11/09 13:02:24;;;;;;;5.20;1.50;;;13.70;99.90;;;;;;6192720;23;20021;-92
2022/11/09 13:05:02;;;;;;;4.00;1.55;;;13.70;99.90;;;;;;6192040;23;20035;-93
2022/11/09 13:07:52;;;;;;;5.13;1.10;;;13.70;99.90;;;;;;6201393;23;20020;-91
2022/11/09 13:10:34;;;;;;;5.82;1.08;;;13.70;99.90;;;;;;6222097;23;20055;-93
2022/11/09 13:13:10;;;;;;;4.45;0.90;;;13.70;99.90;;;;;;6239459;22;20062;-93
2022/11/09 13:15:59;;;;;;;3.92;0.93;;;13.70;99.90;;;;;;6228930;23;20017;-93
2022/11/09 13:18:31;;;;;;;6.13;1.40;;;13.60;99.90;;;;;;6215579;23;20017;-93
2022/11/09 13:21:19;;;;;;;2.88;1.13;;;13.50;99.90;;;;;;6186605;23;20208;-95
2022/11/09 13:23:45;;;;;;;3.50;1.35;;;13.30;99.90;;;;;;6187836;23;20016;-93
2022/11/09 13:26:45;;;;;;;4.43;1.33;;;13.20;99.90;;;;;;6213183;23;20031;-92
2022/11/09 13:29:17;;;;;;;1.52;0.77;;;13.10;99.90;;;;;;6192037;23;20070;-92
2022/11/09 13:32:11;;;;;;;3.30;1.02;;;13.00;99.90;;;;;;6210723;23;20035;-91
2022/11/09 13:34:56;;;;;;;4.18;1.10;;;12.90;99.90;;;;;;6190104;23;20364;-96
2022/11/09 13:37:48;;;;;;;3.25;0.90;;;12.90;99.90;;;;;;6188180;23;20103;-93
2022/11/09 13:40:34;;;;;;;5.07;1.05;;;12.80;99.90;;;;;;6188640;23;20013;-94
2022/11/09 13:43:02;;;;;;;3.05;1.00;;;12.80;99.90;;;;;;6188648;23;20345;-94
2022/11/09 13:45:45;;;;;;;3.40;1.42;;;12.70;99.90;;;;;;6187398;23;20024;-95
2022/11/09 13:48:38;;;;;;;3.97;1.00;;;12.70;99.90;;;;;;6186811;23;20020;-93
2022/11/09 13:51:09;;;;;;;3.50;1.00;;;12.60;99.90;;;;;;6190345;23;20056;-92
2022/11/09 15:12:38;;;;;;;1.02;0.50;;;12.50;99.90;;;;;;6219778;22;20040;-92
2022/11/09 15:15:10;;;;;;;1.23;0.50;;;12.50;99.90;;;;;;6177405;22;20013;-89
2022/11/09 15:18:01;;;;;;;1.02;0.40;;;12.50;99.90;;;;;;6164374;22;20017;-93
2022/11/09 15:20:32;;;;;;;1.35;0.40;;;12.40;99.90;;;;;;6176674;22;20021;-91
2022/11/09 15:41:16;;;;;;;2.45;0.40;;;12.10;99.90;;;;;;6217225;22;20024;-95
2022/11/09 16:27:48;;;;;;;1.88;0.43;;;11.90;99.90;;;;;;6244331;22;20019;-94
2022/11/09 16:30:18;;;;;;;2.45;0.65;;;11.90;99.90;;;;;;6289672;22;20081;-94
2022/11/09 16:32:43;;;;;;;1.25;0.55;;;11.90;99.90;;;;;;6288310;22;20019;-92
2022/11/09 16:35:09;;;;;;;1.70;0.60;;;11.90;99.90;;;;;;6289841;22;20033;-92
2022/11/09 16:37:43;;;;;;;4.22;0.80;;;11.80;99.90;;;;;;6291246;22;20015;-93
2022/11/09 16:40:14;;;;;;;;;;;11.80;99.90;;;;;;6341113;22;20015;-92
2022/11/09 16:42:40;;;;;;;2.40;0.70;;;11.90;99.90;;;;;;6288123;22;19918;-94
2022/11/09 16:45:09;;;;;;;1.77;0.50;;;11.80;99.90;;;;;;6289581;22;20023;-92
2022/11/09 16:47:43;;;;;;;2.80;0.70;;;11.80;99.90;;;;;;6290640;22;20088;-94
2022/11/09 16:50:09;;;;;;;2.20;0.50;;;11.80;99.90;;;;;;6292177;22;20083;-93
2022/11/09 16:52:35;;;;;;;7.63;3.50;;;11.80;99.90;;;;;;6291226;22;20066;-93
2022/11/09 16:55:00;;;;;;;31.58;12.35;;;11.80;99.90;;;;;;6295864;22;20474;-93
2022/11/09 17:31:46;;;;;;;3.70;1.95;;;11.80;99.90;;;;;;6232927;22;20023;-93
2022/11/09 17:34:11;;;;;;;4.85;1.00;;;11.80;99.90;;;;;;6293073;22;20444;-91
2022/11/09 17:36:37;;;;;;;2.35;0.65;;;11.80;99.90;;;;;;6263440;22;20015;-94
2022/11/09 17:39:05;;;;;;;1.80;0.75;;;11.80;99.90;;;;;;6288876;22;20060;-92
2022/11/09 17:41:55;;;;;;;3.13;1.05;;;11.80;99.90;;;;;;6290676;22;20394;-92
2022/11/09 17:44:21;;;;;;;3.80;1.17;;;11.80;99.90;;;;;;6290136;22;20348;-94
2022/11/09 18:20:27;;;;;;;1.40;0.40;;;11.80;99.90;;;;;;6314836;22;20089;-87
2022/11/09 18:22:55;;;;;;;2.58;0.55;;;11.90;99.90;;;;;;6191346;23;20103;-87
2022/11/09 19:37:34;;;;;;;3.55;0.73;;;11.50;99.90;;;;;;6232862;22;20019;-90
2022/11/09 19:39:59;;;;;;;1.92;0.93;;;11.50;99.90;;;;;;6190188;22;20025;-90
2022/11/09 19:42:25;;;;;;;2.90;0.77;;;11.50;99.90;;;;;;6160411;23;20031;-91
2022/11/09 19:44:51;;;;;;;1.70;0.80;;;11.50;99.90;;;;;;6160406;22;20252;-90
2022/11/09 19:47:17;;;;;;;2.43;0.60;;;11.50;99.90;;;;;;6159975;23;20021;-90
2022/11/09 19:49:43;;;;;;;3.47;0.90;;;11.50;99.90;;;;;;6159971;23;20048;-89
2022/11/09 19:58:14;;;;;;;2.15;0.60;;;11.40;99.90;;;;;;6209821;23;20024;-90
2022/11/09 20:00:40;;;;;;;4.43;0.52;;;11.40;99.90;;;;;;6159695;23;20092;-90
2022/11/09 20:03:06;;;;;;;3.80;0.87;;;11.40;99.90;;;;;;6135473;23;20755;-92
2022/11/09 20:05:35;;;;;;;2.47;0.63;;;11.40;99.90;;;;;;6135634;23;20089;-90
2022/11/09 20:08:33;;;;;;;4.75;0.88;;;11.40;99.90;;;;;;6159846;23;20580;-91
2022/11/09 20:11:11;;;;;;;5.05;0.85;;;11.40;99.90;;;;;;6160588;23;20027;-90
2022/11/09 20:13:56;;;;;;;;;;;11.40;99.90;;;;;;6161168;23;20024;-88
2022/11/09 20:19:01;;;;;;;2.63;0.50;;;11.40;99.90;;;;;;6211528;23;20021;-93
2022/11/09 20:22:21;;;;;;;1.23;0.40;;;11.40;99.90;;;;;;6160191;23;20586;-91
2022/11/09 20:24:47;;;;;;;;;;;11.40;99.90;;;;;;6163185;23;20027;-91
2022/11/09 20:38:40;;;;;;;;;;;;;;;;;;;;;
2022/11/09 21:02:09;;;;;;;2.90;0.60;;;11.30;99.90;;;;;;6210922;23;20047;-89
2022/11/09 21:05:02;;;;;;;3.08;0.52;;;11.20;99.90;;;;;;6161248;23;20021;-90
2022/11/09 21:07:31;;;;;;;4.10;0.98;;;11.30;99.90;;;;;;6159902;23;20017;-89
2022/11/09 21:09:57;;;;;;;2.58;0.55;;;11.20;99.90;;;;;;6136296;23;20016;-90
2022/11/09 21:12:51;;;;;;;2.33;0.57;;;11.20;99.90;;;;;;6137146;23;20327;-89
2022/11/09 21:49:33;;;;;;;2.85;0.60;;;11.00;99.90;;;;;;6211037;23;20032;-94
2022/11/09 21:51:59;;;;;;;1.50;0.57;;;11.00;99.90;;;;;;6162013;23;20039;-92
2022/11/09 21:54:25;;;;;;;0.63;0.30;;;11.00;99.90;;;;;;6162037;23;20040;-93
2022/11/09 21:56:51;;;;;;;0.70;0.30;;;11.00;99.90;;;;;;6161539;23;20070;-94
2022/11/09 21:59:36;;;;;;;1.40;0.40;;;11.00;99.90;;;;;;6161717;23;20016;-94
2022/11/09 22:02:02;;;;;;;1.85;0.30;;;11.00;99.90;;;;;;6161526;23;20016;-93
2022/11/09 22:04:27;;;;;;;1.03;0.50;;;11.00;99.90;;;;;;6161597;23;20020;-93
2022/11/09 22:06:54;;;;;;;1.77;0.30;;;11.00;99.90;;;;;;6161613;23;20073;-93
2022/11/09 22:09:19;;;;;;;2.03;0.40;;;11.00;99.90;;;;;;6137467;23;20020;-94
2022/11/09 22:21:18;;;;;;;1.05;0.47;;;11.00;99.90;;;;;;6195756;23;20088;-94
2022/11/09 22:23:46;;;;;;;0.85;0.38;;;11.00;99.90;;;;;;6171248;23;20017;-95
2022/11/09 22:26:13;;;;;;;2.78;0.60;;;11.00;99.90;;;;;;6170191;23;20020;-94
2022/11/09 22:28:45;;;;;;;4.93;0.50;;;11.00;99.90;;;;;;6167274;23;20070;-94
2022/11/09 22:36:25;;;;;;;4.05;0.60;;;11.00;99.90;;;;;;6215033;23;20094;-92
2022/11/09 22:38:52;;;;;;;3.35;0.80;;;11.00;99.90;;;;;;6194226;23;20024;-94
2022/11/09 22:41:23;;;;;;;1.48;0.35;;;11.00;99.90;;;;;;6145143;23;20013;-94
2022/11/09 22:44:05;;;;;;;2.63;0.40;;;11.00;99.90;;;;;;6193219;22;20027;-92
2022/11/09 22:46:30;;;;;;;;;;;10.90;99.90;;;;;;6166066;23;20469;-93
2022/11/09 22:48:56;;;;;;;4.05;0.63;;;10.90;99.90;;;;;;6164035;23;19915;-94
2022/11/09 22:51:22;;;;;;;1.17;0.40;;;10.90;99.90;;;;;;6166916;23;20020;-91
2022/11/09 22:53:49;;;;;;;3.07;0.40;;;10.90;99.90;;;;;;6167457;23;20012;-92
2022/11/09 22:56:15;;;;;;;0.93;0.30;;;10.90;99.90;;;;;;6167724;23;20048;-91
2022/11/09 22:58:43;;;;;;;2.40;0.35;;;10.80;99.90;;;;;;6168687;23;20379;-93
2022/11/09 23:01:15;;;;;;;2.08;0.50;;;10.80;99.90;;;;;;6166676;23;20017;-92
2022/11/09 23:04:10;;;;;;;1.35;0.50;;;10.80;99.90;;;;;;6170379;23;20012;-95
2022/11/09 23:17:00;;;;;;;4.22;1.08;;;10.70;99.90;;;;;;6220742;23;20024;-91
2022/11/09 23:19:30;;;;;;;4.05;1.17;;;10.80;99.90;;;;;;6189087;23;20077;-93
2022/11/09 23:22:29;;;;;;;1.95;0.95;;;10.80;99.90;;;;;;6197235;23;20016;-93
2022/11/09 23:30:29;;;;;;;1.77;0.70;;;10.80;99.90;;;;;;6220298;23;20019;-95
2022/11/09 23:32:56;;;;;;;2.30;0.80;;;10.80;99.90;;;;;;6146369;23;20029;-91
2022/11/09 23:35:22;;;;;;;3.03;0.60;;;10.70;99.90;;;;;;6169456;23;20020;-91
2022/11/09 23:37:58;;;;;;;3.10;0.80;;;10.70;99.90;;;;;;6259164;22;20012;-93
